createdAt,value
2018-03-11T00:00:38.644Z,93.70
2018-03-11T00:03:07.359Z,94.10
2018-03-11T00:05:34.916Z,94.10
2018-03-11T00:08:02.433Z,94.20
2018-03-11T00:10:30.332Z,94.30
2018-03-11T00:12:57.846Z,94.70
2018-03-11T00:15:26.169Z,94.60
2018-03-11T00:17:54.124Z,94.60
2018-03-11T00:20:21.624Z,94.60
2018-03-11T00:22:49.168Z,94.50
2018-03-11T00:25:17.132Z,94.60
2018-03-11T00:27:44.641Z,94.60
2018-03-11T00:30:12.903Z,94.60
2018-03-11T00:32:40.932Z,94.60
2018-03-11T00:35:08.452Z,94.70
2018-03-11T00:37:36.719Z,94.90
2018-03-11T00:40:05.383Z,94.90
2018-03-11T00:42:32.900Z,94.90
2018-03-11T00:45:00.418Z,95.00
2018-03-11T00:47:29.118Z,95.00
2018-03-11T00:49:56.620Z,94.90
2018-03-11T00:52:24.122Z,95.10
2018-03-11T00:54:52.747Z,95.20
2018-03-11T00:57:20.267Z,95.20
2018-03-11T00:59:48.578Z,95.30
2018-03-11T01:02:16.401Z,95.30
2018-03-11T01:04:43.914Z,95.10
2018-03-11T01:07:11.440Z,95.20
2018-03-11T01:09:39.315Z,95.30
2018-03-11T01:12:06.911Z,95.40
2018-03-11T01:14:34.425Z,95.20
2018-03-11T01:17:02.289Z,95.40
2018-03-11T01:19:29.805Z,95.40
2018-03-11T01:21:57.330Z,95.50
2018-03-11T01:24:25.191Z,95.50
2018-03-11T01:26:52.697Z,95.60
2018-03-11T01:29:20.224Z,95.60
2018-03-11T01:31:48.057Z,95.50
2018-03-11T01:34:15.577Z,95.50
2018-03-11T01:36:43.077Z,95.50
2018-03-11T01:39:11.160Z,95.60
2018-03-11T01:41:38.690Z,95.50
2018-03-11T01:44:06.202Z,95.70
2018-03-11T01:46:33.710Z,95.90
2018-03-11T01:49:01.975Z,95.80
2018-03-11T01:51:30.523Z,95.70
2018-03-11T01:53:58.056Z,95.70
2018-03-11T01:56:25.598Z,95.70
2018-03-11T01:58:53.124Z,95.70
2018-03-11T02:01:20.668Z,95.80
2018-03-11T02:03:48.506Z,95.80
2018-03-11T02:06:16.028Z,95.80
2018-03-11T02:08:44.297Z,95.70
2018-03-11T02:11:12.603Z,95.70
2018-03-11T02:13:40.128Z,95.70
2018-03-11T02:16:08.803Z,95.90
2018-03-11T02:18:36.319Z,95.90
2018-03-11T02:21:03.832Z,95.80
2018-03-11T02:23:32.380Z,95.90
2018-03-11T02:25:59.893Z,95.90
2018-03-11T02:28:27.395Z,95.90
2018-03-11T02:30:54.909Z,95.90
2018-03-11T02:33:22.446Z,96.30
2018-03-11T02:35:50.745Z,95.90
2018-03-11T02:38:18.249Z,95.90
2018-03-11T02:40:45.756Z,95.90
2018-03-11T02:43:13.756Z,95.90
2018-03-11T02:45:41.273Z,95.80
2018-03-11T02:48:08.777Z,95.80
2018-03-11T02:50:36.302Z,95.70
2018-03-11T02:53:03.830Z,95.70
2018-03-11T02:55:32.445Z,95.70
2018-03-11T02:57:59.942Z,95.70
2018-03-11T03:00:27.464Z,95.60
2018-03-11T03:02:55.010Z,95.70
2018-03-11T03:05:22.511Z,95.70
2018-03-11T03:07:50.335Z,95.60
2018-03-11T03:10:17.852Z,95.60
2018-03-11T03:12:46.475Z,95.80
2018-03-11T03:15:13.980Z,96.10
2018-03-11T03:17:42.249Z,95.80
2018-03-11T03:20:10.083Z,95.80
2018-03-11T03:22:37.598Z,95.70
2018-03-11T03:25:05.619Z,95.70
2018-03-11T03:27:33.465Z,95.70
2018-03-11T03:30:01.004Z,95.70
2018-03-11T03:32:29.797Z,95.70
2018-03-11T03:34:57.308Z,95.70
2018-03-11T03:37:24.803Z,95.60
2018-03-11T03:39:53.104Z,95.60
2018-03-11T03:42:20.609Z,95.50
2018-03-11T03:44:48.103Z,95.50
2018-03-11T03:47:15.988Z,95.60
2018-03-11T03:49:43.497Z,95.50
2018-03-11T03:52:11.028Z,95.50
2018-03-11T03:54:38.820Z,95.40
2018-03-11T03:57:06.326Z,95.40
2018-03-11T03:59:33.826Z,95.40
2018-03-11T04:02:02.056Z,95.40
2018-03-11T04:04:29.569Z,95.40
2018-03-11T04:06:57.108Z,95.40
2018-03-11T04:09:24.940Z,95.50
2018-03-11T04:11:52.449Z,95.40
2018-03-11T04:14:19.951Z,95.40
2018-03-11T04:16:47.780Z,95.40
2018-03-11T04:19:15.293Z,95.30
2018-03-11T04:21:42.792Z,95.30
2018-03-11T04:24:10.579Z,95.40
2018-03-11T04:26:38.847Z,95.30
2018-03-11T04:29:06.381Z,95.30
2018-03-11T04:31:34.300Z,95.40
2018-03-11T04:34:01.808Z,95.30
2018-03-11T04:36:29.317Z,95.20
2018-03-11T04:38:57.284Z,95.10
2018-03-11T04:41:24.797Z,95.20
2018-03-11T04:43:52.321Z,95.10
2018-03-11T04:46:20.218Z,95.60
2018-03-11T04:48:47.748Z,95.30
2018-03-11T04:51:15.347Z,95.40
2018-03-11T04:53:42.875Z,95.40
2018-03-11T04:56:10.410Z,95.30
2018-03-11T04:58:37.924Z,95.20
2018-03-11T05:01:05.822Z,95.20
2018-03-11T05:03:33.350Z,95.30
2018-03-11T05:06:00.851Z,95.30
2018-03-11T05:08:28.820Z,95.40
2018-03-11T05:10:56.324Z,95.30
2018-03-11T05:13:23.831Z,95.30
2018-03-11T05:15:51.814Z,95.40
2018-03-11T05:18:19.336Z,95.30
2018-03-11T05:20:47.609Z,95.50
2018-03-11T05:23:16.233Z,95.60
2018-03-11T05:25:43.729Z,95.60
2018-03-11T05:28:11.241Z,95.50
2018-03-11T05:30:39.028Z,95.50
2018-03-11T05:33:06.533Z,95.80
2018-03-11T05:35:35.452Z,95.80
2018-03-11T05:38:03.405Z,95.80
2018-03-11T05:40:31.032Z,95.90
2018-03-11T05:42:58.540Z,96.00
2018-03-11T05:45:26.936Z,96.00
2018-03-11T05:47:54.454Z,96.00
2018-03-11T05:50:21.962Z,95.90
2018-03-11T05:52:49.784Z,95.80
2018-03-11T05:55:17.292Z,96.00
2018-03-11T05:57:44.796Z,96.10
2018-03-11T06:00:12.747Z,96.10
2018-03-11T06:02:40.257Z,96.10
2018-03-11T06:05:07.749Z,96.00
2018-03-11T06:07:35.749Z,96.10
2018-03-11T06:10:03.258Z,96.20
2018-03-11T06:12:30.763Z,96.20
2018-03-11T06:14:58.616Z,96.40
2018-03-11T06:17:26.902Z,96.30
2018-03-11T06:19:54.420Z,96.30
2018-03-11T06:22:22.340Z,96.40
2018-03-11T06:24:49.890Z,96.30
2018-03-11T06:27:18.166Z,96.20
2018-03-11T06:29:46.771Z,96.20
2018-03-11T06:32:14.286Z,96.20
2018-03-11T06:34:42.036Z,96.20
2018-03-11T06:37:10.549Z,96.00
2018-03-11T06:39:38.811Z,96.10
2018-03-11T06:42:07.078Z,96.20
2018-03-11T06:44:34.871Z,96.20
2018-03-11T06:47:02.366Z,96.20
2018-03-11T06:49:29.881Z,96.10
2018-03-11T06:51:58.558Z,96.10
2018-03-11T06:54:26.061Z,96.10
2018-03-11T06:56:53.569Z,96.10
2018-03-11T06:59:22.172Z,96.10
2018-03-11T07:01:49.673Z,96.10
2018-03-11T07:04:17.176Z,96.10
2018-03-11T07:06:45.760Z,96.10
2018-03-11T07:09:13.282Z,96.10
2018-03-11T07:11:40.795Z,96.10
2018-03-11T07:14:08.778Z,96.20
2018-03-11T07:16:36.992Z,96.20
2018-03-11T07:19:04.478Z,96.20
2018-03-11T07:21:32.304Z,96.20
2018-03-11T07:23:59.800Z,96.40
2018-03-11T07:26:28.063Z,96.30
2018-03-11T07:28:55.856Z,96.30
2018-03-11T07:31:23.357Z,96.30
2018-03-11T07:33:50.879Z,96.40
2018-03-11T07:36:18.728Z,96.40
2018-03-11T07:38:46.256Z,96.40
2018-03-11T07:41:13.752Z,96.40
2018-03-11T07:43:41.538Z,96.30
2018-03-11T07:46:09.719Z,96.20
2018-03-11T07:48:37.226Z,95.60
2018-03-11T07:51:06.154Z,95.50
2018-03-11T07:53:33.665Z,95.50
2018-03-11T07:56:01.256Z,95.40
2018-03-11T07:58:29.082Z,95.50
2018-03-11T08:00:56.586Z,95.50
2018-03-11T08:03:24.103Z,95.50
2018-03-11T08:05:51.913Z,95.30
2018-03-11T08:08:19.437Z,95.30
2018-03-11T08:10:47.728Z,95.20
2018-03-11T08:13:15.709Z,95.20
2018-03-11T08:15:43.225Z,95.20
2018-03-11T08:18:10.745Z,95.40
2018-03-11T08:20:38.582Z,95.10
2018-03-11T08:23:06.119Z,95.10
2018-03-11T08:25:33.632Z,95.10
2018-03-11T08:28:01.467Z,95.00
2018-03-11T08:30:28.992Z,94.90
2018-03-11T08:32:56.482Z,95.00
2018-03-11T08:35:24.453Z,95.00
2018-03-11T08:37:51.972Z,94.80
2018-03-11T08:40:19.467Z,94.90
2018-03-11T08:42:47.643Z,94.90
2018-03-11T08:45:15.816Z,94.90
2018-03-11T08:47:43.771Z,94.80
2018-03-11T08:50:11.309Z,94.80
2018-03-11T08:52:38.824Z,94.70
2018-03-11T08:55:06.346Z,94.90
2018-03-11T08:57:33.880Z,94.70
2018-03-11T09:00:01.899Z,94.50
2018-03-11T09:02:29.432Z,94.40
2018-03-11T09:04:57.795Z,94.40
2018-03-11T09:07:25.325Z,94.40
2018-03-11T09:09:52.938Z,94.20
2018-03-11T09:12:20.820Z,94.20
2018-03-11T09:14:48.414Z,93.90
2018-03-11T09:17:17.495Z,93.60
2018-03-11T09:19:45.140Z,93.60
2018-03-11T09:22:12.708Z,93.20
2018-03-11T09:24:41.307Z,92.60
2018-03-11T09:27:09.671Z,92.80
2018-03-11T09:29:37.246Z,92.80
2018-03-11T09:32:04.845Z,92.70
2018-03-11T09:34:33.194Z,92.00
2018-03-11T09:37:01.831Z,91.90
2018-03-11T09:39:31.008Z,91.70
2018-03-11T09:41:58.612Z,91.70
2018-03-11T09:44:26.701Z,91.40
2018-03-11T09:46:55.063Z,91.50
2018-03-11T09:49:23.402Z,91.50
2018-03-11T09:51:51.252Z,91.50
2018-03-11T09:54:18.854Z,91.20
2018-03-11T09:56:46.492Z,90.80
2018-03-11T09:59:15.521Z,90.80
2018-03-11T10:01:43.106Z,90.70
2018-03-11T10:04:11.778Z,90.70
2018-03-11T10:06:39.355Z,90.60
2018-03-11T10:09:06.930Z,90.80
2018-03-11T10:11:35.299Z,90.30
2018-03-11T10:14:02.895Z,90.30
2018-03-11T10:16:30.769Z,90.30
2018-03-11T10:18:58.360Z,89.90
2018-03-11T10:21:26.437Z,90.20
2018-03-11T10:23:54.023Z,89.60
2018-03-11T10:26:21.619Z,90.10
2018-03-11T10:28:49.478Z,89.60
2018-03-11T10:31:17.070Z,89.00
2018-03-11T10:33:44.669Z,89.60
2018-03-11T10:36:12.264Z,90.00
2018-03-11T10:38:39.848Z,88.50
2018-03-11T10:41:07.752Z,88.60
2018-03-11T10:43:35.401Z,88.10
2018-03-11T10:46:04.256Z,88.60
2018-03-11T10:48:32.172Z,88.60
2018-03-11T10:50:59.916Z,88.00
2018-03-11T10:53:27.407Z,88.00
2018-03-11T10:55:55.291Z,88.70
2018-03-11T10:58:22.786Z,88.40
2018-03-11T11:00:52.196Z,88.40
2018-03-11T11:03:34.920Z,88.50
2018-03-11T11:06:02.450Z,88.10
2018-03-11T11:08:29.978Z,87.60
2018-03-11T11:10:57.838Z,87.80
2018-03-11T11:13:25.981Z,87.90
2018-03-11T11:15:54.287Z,87.00
2018-03-11T11:18:22.268Z,87.00
2018-03-11T11:20:50.690Z,87.20
2018-03-11T11:23:18.205Z,87.00
2018-03-11T11:25:46.049Z,86.80
2018-03-11T11:28:14.473Z,86.70
2018-03-11T11:30:41.988Z,86.90
2018-03-11T11:33:09.849Z,86.70
2018-03-11T11:35:37.372Z,86.40
2018-03-11T11:38:04.885Z,86.70
2018-03-11T11:40:32.853Z,86.50
2018-03-11T11:43:00.374Z,85.90
2018-03-11T11:45:27.929Z,86.40
2018-03-11T11:47:55.708Z,86.70
2018-03-11T11:50:24.019Z,86.40
2018-03-11T11:52:51.543Z,85.70
2018-03-11T11:55:19.443Z,85.70
2018-03-11T11:57:46.961Z,86.40
2018-03-11T12:00:15.245Z,86.10
2018-03-11T12:02:44.410Z,86.00
2018-03-11T12:05:11.919Z,86.00
2018-03-11T12:07:39.430Z,85.70
2018-03-11T12:10:07.465Z,85.80
2018-03-11T12:12:34.984Z,85.90
2018-03-11T12:15:03.262Z,86.20
2018-03-11T12:17:32.065Z,86.00
2018-03-11T12:19:59.818Z,86.00
2018-03-11T12:22:27.404Z,85.70
2018-03-11T12:24:55.263Z,86.50
2018-03-11T12:27:22.785Z,87.60
2018-03-11T12:29:51.092Z,89.20
2018-03-11T12:32:18.929Z,88.90
2018-03-11T12:34:47.204Z,90.10
2018-03-11T12:37:15.488Z,89.90
2018-03-11T12:39:44.129Z,90.10
2018-03-11T12:42:11.659Z,90.10
2018-03-11T12:44:39.189Z,90.00
2018-03-11T12:47:07.118Z,90.00
2018-03-11T12:49:34.614Z,89.90
2018-03-11T12:52:02.962Z,90.00
2018-03-11T12:54:30.741Z,89.90
2018-03-11T12:56:59.041Z,90.00
2018-03-11T12:59:27.360Z,89.60
2018-03-11T13:01:55.164Z,89.60
2018-03-11T13:04:22.665Z,88.70
2018-03-11T13:06:50.180Z,89.50
2018-03-11T13:09:18.758Z,88.60
2018-03-11T13:11:46.292Z,88.50
2018-03-11T13:14:13.822Z,88.30
2018-03-11T13:16:42.391Z,88.30
2018-03-11T13:19:09.896Z,88.20
2018-03-11T13:21:37.423Z,87.70
2018-03-11T13:24:05.308Z,87.70
2018-03-11T13:26:32.840Z,87.50
2018-03-11T13:29:00.385Z,87.60
2018-03-11T13:31:28.187Z,87.70
2018-03-11T13:34:07.615Z,87.00
2018-03-11T13:36:35.492Z,86.40
2018-03-11T13:39:14.720Z,85.70
2018-03-11T13:41:42.695Z,85.30
2018-03-11T13:44:10.223Z,85.70
2018-03-11T13:46:50.892Z,85.70
2018-03-11T13:49:18.404Z,85.60
2018-03-11T13:51:58.127Z,85.10
2018-03-11T13:54:25.637Z,85.30
2018-03-11T13:57:06.113Z,86.10
2018-03-11T13:59:33.679Z,86.00
2018-03-11T14:02:01.188Z,85.60
2018-03-11T14:04:28.983Z,85.60
2018-03-11T14:06:56.504Z,85.30
2018-03-11T14:09:24.077Z,85.10
2018-03-11T14:11:52.760Z,86.20
2018-03-11T14:14:20.294Z,85.90
2018-03-11T14:16:47.836Z,86.50
2018-03-11T14:19:15.706Z,85.80
2018-03-11T14:21:43.241Z,85.80
2018-03-11T14:24:10.816Z,85.60
2018-03-11T14:26:38.626Z,85.70
2018-03-11T14:29:06.178Z,85.70
2018-03-11T14:31:33.716Z,85.80
2018-03-11T14:34:01.615Z,85.90
2018-03-11T14:36:29.918Z,85.80
2018-03-11T14:38:57.443Z,85.80
2018-03-11T14:41:26.022Z,85.30
2018-03-11T14:43:53.605Z,85.30
2018-03-11T14:46:22.142Z,84.70
2018-03-11T14:48:50.082Z,84.70
2018-03-11T14:51:17.590Z,84.80
2018-03-11T14:53:45.137Z,84.90
2018-03-11T14:56:12.940Z,84.80
2018-03-11T14:58:41.239Z,84.50
2018-03-11T15:01:08.759Z,84.60
2018-03-11T15:03:36.875Z,85.00
2018-03-11T15:06:04.403Z,85.00
2018-03-11T15:08:32.690Z,85.00
2018-03-11T15:11:00.544Z,85.00
2018-03-11T15:13:28.846Z,84.70
2018-03-11T15:15:56.409Z,84.70
2018-03-11T15:18:24.240Z,84.70
2018-03-11T15:20:51.805Z,84.70
2018-03-11T15:23:19.340Z,85.00
2018-03-11T15:25:47.283Z,85.10
2018-03-11T15:28:14.819Z,85.00
2018-03-11T15:30:42.373Z,84.80
2018-03-11T15:33:10.208Z,85.10
2018-03-11T15:35:38.514Z,85.30
2018-03-11T15:38:06.048Z,85.30
2018-03-11T15:40:34.661Z,85.50
2018-03-11T15:43:02.698Z,85.50
2018-03-11T15:45:30.224Z,85.70
2018-03-11T15:47:58.058Z,85.80
2018-03-11T15:50:26.389Z,85.50
2018-03-11T15:52:54.684Z,85.70
2018-03-11T15:55:22.549Z,85.70
2018-03-11T15:57:50.833Z,85.80
2018-03-11T16:00:19.548Z,85.80
2018-03-11T16:02:47.424Z,86.00
2018-03-11T16:05:14.960Z,85.90
2018-03-11T16:07:42.500Z,86.10
2018-03-11T16:10:10.302Z,86.00
2018-03-11T16:12:37.851Z,86.20
2018-03-11T16:15:06.262Z,85.90
2018-03-11T16:17:34.262Z,85.70
2018-03-11T16:20:01.830Z,85.90
2018-03-11T16:22:29.361Z,85.90
2018-03-11T16:24:58.139Z,85.70
2018-03-11T16:27:25.675Z,85.70
2018-03-11T16:29:53.266Z,85.70
2018-03-11T16:32:21.005Z,85.80
2018-03-11T16:34:48.556Z,85.90
2018-03-11T16:37:16.099Z,86.00
2018-03-11T16:39:43.673Z,85.70
2018-03-11T16:42:11.233Z,85.60
2018-03-11T16:44:38.786Z,85.80
2018-03-11T16:47:06.344Z,85.70
2018-03-11T16:49:33.881Z,85.60
2018-03-11T16:52:01.501Z,84.80
2018-03-11T16:54:29.733Z,84.40
2018-03-11T16:56:57.266Z,83.70
2018-03-11T16:59:24.819Z,83.60
2018-03-11T17:01:52.379Z,83.50
2018-03-11T17:04:19.904Z,83.40
2018-03-11T17:06:47.470Z,82.70
2018-03-11T17:09:15.054Z,82.70
2018-03-11T17:11:42.655Z,82.20
2018-03-11T17:14:10.176Z,82.50
2018-03-11T17:16:37.803Z,82.10
2018-03-11T17:19:06.130Z,82.10
2018-03-11T17:21:33.682Z,81.50
2018-03-11T17:24:01.300Z,81.90
2018-03-11T17:26:28.874Z,81.90
2018-03-11T17:28:57.256Z,81.70
2018-03-11T17:31:25.579Z,81.60
2018-03-11T17:33:53.158Z,81.60
2018-03-11T17:36:20.710Z,81.70
2018-03-11T17:38:49.044Z,82.10
2018-03-11T17:41:16.623Z,82.10
2018-03-11T17:43:44.160Z,83.00
2018-03-11T17:46:12.556Z,82.40
2018-03-11T17:48:40.105Z,82.40
2018-03-11T17:51:07.647Z,82.50
2018-03-11T17:53:36.001Z,83.20
2018-03-11T17:56:03.592Z,83.10
2018-03-11T17:58:32.193Z,83.40
2018-03-11T18:00:59.829Z,83.60
2018-03-11T18:03:27.636Z,83.50
2018-03-11T18:05:56.427Z,83.30
2018-03-11T18:08:25.286Z,83.30
2018-03-11T18:10:53.924Z,83.30
2018-03-11T18:13:22.291Z,83.30
2018-03-11T18:15:49.899Z,83.30
2018-03-11T18:18:17.586Z,83.30
2018-03-11T18:20:46.179Z,83.30
2018-03-11T18:32:53.994Z,83.20
2018-03-11T18:35:22.781Z,84.50
2018-03-11T18:37:51.448Z,84.50
2018-03-11T18:40:19.197Z,84.30
2018-03-11T18:42:47.933Z,85.10
2018-03-11T18:45:15.681Z,85.00
2018-03-11T18:47:43.403Z,85.10
2018-03-11T18:50:11.331Z,85.00
2018-03-11T18:52:39.401Z,84.80
2018-03-11T18:55:08.121Z,85.10
2018-03-11T18:57:36.321Z,85.50
2018-03-11T19:00:05.098Z,85.90
2018-03-11T19:02:33.636Z,85.70
2018-03-11T19:05:01.660Z,85.50
2018-03-11T19:07:30.238Z,86.00
2018-03-11T19:09:58.395Z,86.00
2018-03-11T19:12:27.029Z,86.40
2018-03-11T19:14:55.656Z,87.20
2018-03-11T19:17:23.962Z,87.20
2018-03-11T19:19:51.660Z,87.00
2018-03-11T19:22:19.443Z,87.20
2018-03-11T19:24:48.171Z,87.60
2018-03-11T19:27:15.984Z,87.80
2018-03-11T19:29:43.877Z,88.00
2018-03-11T19:32:12.930Z,87.50
2018-03-11T19:34:40.889Z,87.90
2018-03-11T19:37:09.802Z,87.80
2018-03-11T19:39:39.165Z,88.10
2018-03-11T19:42:07.675Z,88.50
2018-03-11T19:44:35.792Z,88.40
2018-03-11T19:47:03.845Z,88.60
2018-03-11T19:49:32.351Z,89.40
2018-03-11T19:52:00.297Z,89.30
2018-03-11T19:54:29.343Z,89.60
2018-03-11T19:56:57.736Z,89.80
2018-03-11T19:59:26.268Z,89.80
2018-03-11T20:14:49.021Z,89.50
2018-03-11T20:17:16.765Z,90.10
2018-03-11T20:19:45.252Z,90.40
2018-03-11T20:22:14.068Z,90.50
2018-03-11T20:24:41.880Z,90.50
2018-03-11T20:27:09.535Z,90.50
2018-03-11T20:29:37.180Z,90.90
2018-03-11T20:32:05.258Z,90.50
2018-03-11T20:34:32.861Z,90.40
2018-03-11T20:37:01.379Z,90.30
2018-03-11T20:39:29.105Z,90.30
2018-03-11T20:41:56.894Z,90.40
2018-03-11T20:44:24.598Z,90.40
2018-03-11T20:46:53.167Z,90.40
2018-03-11T20:49:21.064Z,90.50
2018-03-11T21:04:43.902Z,90.60
2018-03-11T21:07:11.730Z,90.70
2018-03-11T21:09:39.743Z,90.80
2018-03-11T21:12:07.441Z,90.90
2018-03-11T21:14:35.164Z,90.80
2018-03-11T21:17:03.047Z,90.80
2018-03-11T21:19:30.663Z,91.00
2018-03-11T21:21:58.339Z,91.00
2018-03-11T21:24:25.874Z,90.90
2018-03-11T21:26:54.545Z,91.00
2018-03-11T21:29:23.009Z,91.00
2018-03-11T21:31:50.757Z,91.00
2018-03-11T21:34:18.939Z,91.00
2018-03-11T21:36:47.066Z,91.50
2018-03-11T21:39:14.606Z,91.50
2018-03-11T21:41:42.328Z,91.20
2018-03-11T21:44:09.964Z,91.60
2018-03-11T21:46:37.531Z,91.70
2018-03-11T21:49:05.079Z,91.70
2018-03-11T21:51:32.661Z,91.70
2018-03-11T21:54:00.307Z,91.80
2018-03-11T21:56:27.990Z,91.50
2018-03-11T21:58:55.675Z,91.50
2018-03-11T22:01:24.127Z,91.70
2018-03-11T22:03:51.697Z,91.70
2018-03-11T22:06:19.752Z,91.70
2018-03-11T22:08:47.570Z,91.70
2018-03-11T22:11:15.985Z,91.80
2018-03-11T22:13:43.931Z,91.80
2018-03-11T22:16:12.999Z,91.90
2018-03-11T22:18:41.426Z,91.70
2018-03-11T22:21:10.208Z,91.20
2018-03-11T22:23:37.816Z,91.20
2018-03-11T22:26:06.074Z,91.30
2018-03-11T22:28:34.645Z,91.50
2018-03-11T22:31:02.408Z,91.50
2018-03-11T22:33:30.204Z,91.50
2018-03-11T22:35:57.951Z,91.60
2018-03-11T22:38:25.650Z,91.50
2018-03-11T22:40:53.509Z,91.70
2018-03-11T22:43:21.296Z,91.80
2018-03-11T22:45:49.210Z,91.20
2018-03-11T22:48:17.481Z,91.20
2018-03-11T22:50:45.458Z,91.30
2018-03-11T22:53:13.420Z,91.40
2018-03-11T22:55:41.389Z,91.40
2018-03-11T22:58:09.839Z,91.60
2018-03-11T23:00:37.619Z,91.50
2018-03-11T23:03:05.432Z,91.70
2018-03-11T23:05:33.428Z,91.50
2018-03-11T23:08:01.046Z,91.10
2018-03-11T23:10:28.983Z,91.10
2018-03-11T23:12:56.492Z,91.20
2018-03-11T23:15:23.995Z,91.20
2018-03-11T23:17:51.517Z,91.40
2018-03-11T23:20:19.108Z,91.40
2018-03-11T23:22:46.638Z,91.40
2018-03-11T23:25:14.217Z,91.60
2018-03-11T23:27:41.751Z,91.70
2018-03-11T23:30:09.269Z,92.00
2018-03-11T23:32:37.608Z,91.80
2018-03-11T23:35:05.124Z,91.70
2018-03-11T23:37:32.653Z,91.60
2018-03-11T23:40:00.988Z,91.30
2018-03-11T23:42:28.505Z,91.20
2018-03-11T23:44:56.068Z,91.00
2018-03-11T23:47:24.426Z,91.20
2018-03-11T23:49:52.727Z,91.20
2018-03-11T23:52:20.260Z,91.10
2018-03-11T23:54:47.840Z,91.20
2018-03-11T23:57:15.401Z,91.10
2018-03-11T23:59:43.700Z,91.70
